Judi M. — WCX8376 — position and weather

sailwx.info

Track history (hours):
 
Tides and Currents Weather Stations Pressure Air Temp Water Temp Dewpoint Dewpoint Depression Visibility Wind Speed Wind Dir Waves Ship Positions

Judi M.

Owner: MANKE TUG & BARGE CO INC, SHELTON, WA. More information available from US FCC via Universal Licensing System and Coast Guard Vessel Documentation Center.

Last reported at 2016-Apr-30 02:32 UTC. Time now 2016-Apr-30 03:24 UTC.
Position N 48°01' W 122°39'.

Length 29 m; draft 4 m.

Type: Tow > 200 m length. MMSI: 366740920.

Date/timePositionNaut miles runAvg speedWind from/ knotsBaromVisibWave heightAir tempDewpointWater temp
2016-Apr-30 02:32N 48°01' W 122°39'6 5.9
2016-Apr-30 01:33N 48°06' W 122°44'3 2.5
2016-Apr-30 00:32N 48°06' W 122°48'0 0.0
2016-Apr-29 20:24N 48°06' W 122°48'0 0.0
2016-Apr-29 19:17N 48°06' W 122°48'0 0.0
2016-Apr-29 18:12N 48°06' W 122°48'0 0.0
2016-Apr-29 17:30N 48°06' W 122°48'0 0.0
2016-Apr-29 16:32N 48°06' W 122°48'1 0.1
2016-Apr-29 12:29N 48°05' W 122°47'6 5.6
2016-Apr-29 11:29N 48°06' W 122°39'7 8.1
2016-Apr-29 10:33N 47°59' W 122°35'8 7.7
2016-Apr-29 09:33N 47°53' W 122°28'7 7.2
2016-Apr-29 08:33N 47°46' W 122°26'7 6.6
2016-Apr-29 07:33N 47°39' W 122°27'6 5.7
2016-Apr-29 06:33N 47°34' W 122°22'0 0.0
2016-Apr-29 05:33N 47°34' W 122°22'0 0.0
2016-Apr-29 04:33N 47°34' W 122°22'0 0.0
2016-Apr-29 03:33N 47°34' W 122°22'0 0.0
2016-Apr-29 02:33N 47°34' W 122°22'1 0.9
2016-Apr-29 01:33N 47°35' W 122°21'1 0.9
2016-Apr-29 00:33N 47°34' W 122°22'  
2016-Apr-22 10:34N 47°34' W 122°22'1 1.3
2016-Apr-22 09:34N 47°36' W 122°22'5 4.8
2016-Apr-22 08:33N 47°38' W 122°28'6 6.1
2016-Apr-22 07:34N 47°45' W 122°28'6 6.0
2016-Apr-22 06:34N 47°51' W 122°29'5 5.2
2016-Apr-22 05:33N 47°56' W 122°31'5 4.6
2016-Apr-22 04:34N 47°58' W 122°36'9 0.4
2016-Apr-21 07:12N 48°06' W 122°45'4 5.4
2016-Apr-21 06:25N 48°05' W 122°39'7 8.6
2016-Apr-21 05:34N 47°58' W 122°34'8 7.6
2016-Apr-21 04:34N 47°52' W 122°28'7 7.3
2016-Apr-21 03:33N 47°45' W 122°26'7 7.1
2016-Apr-21 02:34N 47°38' W 122°25'  
Track history (hours):
 
Tides and Currents Weather Stations Pressure Air Temp Water Temp Dewpoint Dewpoint Depression Visibility Wind Speed Wind Dir Waves Ship Positions

Judi M.

Owner: MANKE TUG & BARGE CO INC, SHELTON, WA. More information available from US FCC via Universal Licensing System and Coast Guard Vessel Documentation Center.

Last reported at 2016-Apr-30 02:32 UTC. Time now 2016-Apr-30 03:24 UTC.
Position N 48°01' W 122°39'.

Length 29 m; draft 4 m.

Type: Tow > 200 m length. MMSI: 366740920.

Date/timePositionNaut miles runAvg speedWind from/ knotsBaromVisibWave heightAir tempDewpointWater temp
2016-Apr-30 02:32N 48°01' W 122°39'6 5.9
2016-Apr-30 01:33N 48°06' W 122°44'3 2.5
2016-Apr-30 00:32N 48°06' W 122°48'0 0.0
2016-Apr-29 20:24N 48°06' W 122°48'0 0.0
2016-Apr-29 19:17N 48°06' W 122°48'0 0.0
2016-Apr-29 18:12N 48°06' W 122°48'0 0.0
2016-Apr-29 17:30N 48°06' W 122°48'0 0.0
2016-Apr-29 16:32N 48°06' W 122°48'1 0.1
2016-Apr-29 12:29N 48°05' W 122°47'6 5.6
2016-Apr-29 11:29N 48°06' W 122°39'7 8.1
2016-Apr-29 10:33N 47°59' W 122°35'8 7.7
2016-Apr-29 09:33N 47°53' W 122°28'7 7.2
2016-Apr-29 08:33N 47°46' W 122°26'7 6.6
2016-Apr-29 07:33N 47°39' W 122°27'6 5.7
2016-Apr-29 06:33N 47°34' W 122°22'0 0.0
2016-Apr-29 05:33N 47°34' W 122°22'0 0.0
2016-Apr-29 04:33N 47°34' W 122°22'0 0.0
2016-Apr-29 03:33N 47°34' W 122°22'0 0.0
2016-Apr-29 02:33N 47°34' W 122°22'1 0.9
2016-Apr-29 01:33N 47°35' W 122°21'1 0.9
2016-Apr-29 00:33N 47°34' W 122°22'  
2016-Apr-22 10:34N 47°34' W 122°22'1 1.3
2016-Apr-22 09:34N 47°36' W 122°22'5 4.8
2016-Apr-22 08:33N 47°38' W 122°28'6 6.1
2016-Apr-22 07:34N 47°45' W 122°28'6 6.0
2016-Apr-22 06:34N 47°51' W 122°29'5 5.2
2016-Apr-22 05:33N 47°56' W 122°31'5 4.6
2016-Apr-22 04:34N 47°58' W 122°36'9 0.4
2016-Apr-21 07:12N 48°06' W 122°45'4 5.4
2016-Apr-21 06:25N 48°05' W 122°39'7 8.6
2016-Apr-21 05:34N 47°58' W 122°34'8 7.6
2016-Apr-21 04:34N 47°52' W 122°28'7 7.3
2016-Apr-21 03:33N 47°45' W 122°26'7 7.1
2016-Apr-21 02:34N 47°38' W 122°25'  

Dump ship's entire track history